Inaja Park (222, 626) Station Data

Red Flag Warning: No
Fire Weather Zone: 258
SDGE Region: North East
Lat/Lon: 33.095/-116.666

Observations

Time Wind Speed/Gust Temp(F) RH Fuel Moist Fuel Temp(F) Dewpt(F) Tmax(F) Tmin(F) Accum Precip 10-min Precip SL Press(mb)
6/22 4:50am 53 10 G 12 66° 30% - - 34° 68.5° 64.8° - - -
6/22 4:40am 52 9 G 12 66° 31% - - 34° 68.5° 64.8° - - -
6/22 4:30am 51 10 G 11 65° 32% - - 35° 68.5° 64.8° - - -
6/22 4:20am 50 10 G 11 66° 32% - - 35° 68.5° 64.8° - - -
6/22 4:10am 53 10 G 12 67° 31% - - 35° 68.5° 64.8° - - -
6/22 4:00am 57 9 G 11 67° 30% - - 35° 68.5° 64.8° - - -
6/22 3:50am 52 9 G 11 66° 32% - - 36° 68.5° 64.8° - - -
6/22 3:40am 46 10 G 12 66° 34% - - 37° 68.5° 64.9° - - -
6/22 3:30am 54 10 G 11 67° 31% - - 36° 68.5° 65° - - -
6/22 3:20am 55 9 G 11 67° 33% - - 37° 68.4° 65° - - -
6/22 3:10am 47 9 G 11 67° 34% - - 37° 68.4° 65° - - -
6/22 3:00am 44 9 G 11 66° 35% - - 38° 68.4° 65° - - -
6/22 2:50am 43 9 G 11 67° 35% - - 38° 68.4° 65° - - -
6/22 2:40am 46 9 G 10 66° 36% - - 39° 68.4° 65° - - -
6/22 2:30am 53 9 G 11 66° 37% - - 39° 68.4° 65° - - -
6/22 2:20am 52 9 G 11 67° 36% - - 39° 68.4° 65° - - -
6/22 2:10am 52 9 G 11 67° 37% - - 40° 68.4° 65° - - -
6/22 2:00am 51 10 G 11 66° 39% - - 41° 68.4° 65° - - -
6/22 1:50am 48 9 G 11 66° 39% - - 41° 68.4° 65° - - -
6/22 1:40am 50 10 G 12 66° 40% - - 41° 68.4° 65° - - -
6/22 1:30am 48 10 G 12 66° 42% - - 42° 68.4° 65° - - -
6/22 1:20am 49 10 G 11 66° 40% - - 42° 68.4° 65.8° - - -
6/22 1:10am 51 10 G 11 67° 38% - - 41° 68.4° 66.2° - - -
6/22 1:00am 54 9 G 11 67° 38% - - 41° 68.3° 66.2° - - -
6/22 12:50am 50 9 G 11 67° 39% - - 41° 68° 66.2° - - -
6/22 12:40am 51 10 G 11 67° 40% - - 42° 68° 66.2° - - -
6/22 12:30am 49 9 G 11 67° 40% - - 42° 68° 66.3° - - -
6/22 12:20am 49 9 G 11 67° 41% - - 43° 68° 66.3° - - -
6/22 12:10am 46 9 G 11 67° 42% - - 43° 67.7° 66.3° - - -
6/22 12:00am 49 10 G 12 68° 41% - - 44° 95.5° 64.6° - - -
6/21 11:50pm 49 9 G 11 68° 42% - - 44° 95.5° 64.6° - - -
6/21 11:40pm 44 9 G 11 68° 45% - - 45° 95.5° 64.6° - - -
6/21 11:30pm 45 9 G 12 67° 49% - - 48° 95.5° 64.6° - - -
6/21 11:20pm 42 9 G 11 67° 51% - - 49° 95.5° 64.6° - - -
6/21 11:10pm 44 9 G 11 68° 51% - - 49° 95.5° 64.6° - - -
6/21 11:00pm 48 9 G 11 69° 50% - - 50° 95.5° 64.6° - - -
6/21 10:50pm 48 9 G 11 69° 50% - - 50° 95.5° 64.6° - - -
6/21 10:40pm 45 9 G 11 69° 53% - - 51° 95.5° 64.6° - - -
6/21 10:30pm 44 9 G 11 69° 53% - - 51° 95.5° 64.6° - - -
6/21 10:20pm 49 9 G 11 69° 52% - - 51° 95.5° 64.6° - - -
6/21 10:10pm 47 9 G 11 70° 52% - - 51° 95.5° 64.6° - - -
6/21 10:00pm 51 9 G 11 71° 49% - - 51° 95.5° 64.6° - - -
6/21 9:50pm 44 9 G 10 71° 49% - - 51° 95.5° 64.6° - - -
6/21 9:40pm 47 9 G 11 71° 49% - - 51° 95.5° 64.6° - - -
6/21 9:30pm 52 8 G 11 71° 50% - - 51° 95.5° 64.6° - - -
6/21 9:20pm 51 8 G 10 72° 49% - - 52° 95.5° 64.6° - - -
6/21 9:10pm 50 7 G 10 72° 49% - - 52° 95.5° 64.6° - - -
6/21 9:00pm 49 8 G 10 73° 48% - - 52° 95.5° 64.6° - - -
6/21 8:50pm 58 7 G 10 74° 47% - - 52° 95.5° 64.6° - - -
6/21 8:40pm 43 7 G 9 75° 46% - - 53° 95.5° 64.6° - - -
6/21 8:30pm 44 6 G 8 76° 47% - - 54° 95.5° 64.6° - - -
6/21 8:20pm 43 5 G 7 77° 46% - - 55° 95.5° 64.6° - - -
6/21 8:10pm 36 5 G 6 79° 45% - - 56° 95.5° 64.6° - - -
6/21 8:00pm 38 2 G 5 81° 44% - - 57° 95.5° 64.6° - - -
6/21 7:50pm 203 2 G 4 81° 44% - - 57° 95.5° 64.6° - - -
6/21 7:40pm 189 4 G 6 81° 43% - - 57° 95.5° 64.6° - - -
6/21 7:30pm 192 4 G 6 81° 42% - - 56° 95.5° 64.6° - - -
6/21 7:20pm 190 4 G 6 82° 41% - - 56° 95.5° 64.6° - - -
6/21 7:10pm 189 5 G 6 82° 38% - - 54° 95.5° 64.6° - - -
6/21 7:00pm 195 5 G 7 84° 33% - - 52° 95.5° 64.6° - - -
6/21 6:50pm 204 6 G 8 84° 32% - - 51° 95.5° 64.6° - - -
6/21 6:40pm 211 5 G 8 84° 33% - - 52° 95.5° 64.6° - - -
6/21 6:30pm 201 6 G 8 85° 33% - - 53° 95.5° 64.6° - - -
6/21 6:20pm 205 8 G 10 85° 35% - - 54° 95.5° 64.6° - - -
6/21 6:10pm 207 7 G 9 85° 35% - - 55° 95.5° 64.6° - - -
6/21 6:00pm 219 7 G 10 86° 35% - - 55° 95.5° 64.6° - - -
6/21 5:50pm 210 8 G 12 86° 35% - - 55° 95.5° 64.6° - - -
6/21 5:40pm 200 9 G 12 87° 34% - - 55° 95.5° 64.6° - - -
6/21 5:30pm 198 10 G 15 87° 33% - - 55° 95.5° 64.6° - - -
6/21 5:20pm 195 12 G 16 88° 32% - - 54° 95.5° 64.6° - - -
6/21 5:10pm 193 11 G 16 88° 32% - - 54° 95.5° 64.6° - - -
6/21 5:00pm 201 10 G 14 89° 31% - - 54° 95.5° 64.6° - - -
6/21 4:50pm 194 12 G 17 89° 30% - - 54° 95.5° 64.6° - - -
6/21 4:40pm 195 12 G 17 89° 30% - - 54° 95.5° 64.6° - - -
6/21 4:30pm 197 13 G 17 90° 30% - - 54° 95.5° 64.6° - - -
6/21 4:20pm 199 12 G 18 90° 28% - - 53° 95.5° 64.6° - - -
6/21 4:10pm 197 12 G 17 91° 28% - - 53° 95.5° 64.6° - - -
6/21 4:00pm 201 11 G 17 91° 27% - - 53° 95.5° 64.6° - - -
6/21 3:50pm 201 12 G 16 91° 27% - - 53° 95.5° 64.6° - - -
6/21 3:40pm 207 10 G 16 93° 26% - - 53° 95.5° 64.6° - - -
6/21 3:30pm 200 10 G 17 92° 26% - - 53° 95.5° 64.6° - - -
6/21 3:20pm 203 10 G 15 92° 26% - - 53° 95.5° 64.6° - - -
6/21 3:10pm 205 11 G 18 93° 27% - - 54° 95.5° 64.6° - - -
6/21 3:00pm 205 12 G 19 93° 26% - - 53° 95.5° 64.6° - - -
6/21 2:50pm 199 13 G 19 93° 26% - - 53° 95.5° 64.6° - - -
6/21 2:40pm 201 12 G 21 93° 25% - - 52° 95.5° 64.6° - - -
6/21 2:30pm 203 12 G 17 93° 24% - - 51° 95.5° 64.6° - - -
6/21 2:20pm 201 11 G 20 94° 23% - - 50° 95.5° 64.6° - - -
6/21 2:10pm 201 10 G 17 94° 21% - - 49° 95.5° 64.6° - - -
6/21 2:00pm 200 10 G 17 94° 22% - - 49° 95.1° 64.6° - - -
6/21 1:50pm 201 11 G 18 94° 21% - - 48° 95.1° 64.6° - - -
6/21 1:40pm 202 12 G 19 94° 20% - - 47° 95.1° 64.6° - - -
6/21 1:30pm 203 12 G 18 94° 19% - - 45° 95.1° 64.6° - - -
6/21 1:20pm 198 13 G 17 93° 19% - - 44° 95.1° 64.6° - - -
6/21 1:10pm 195 12 G 16 93° 18% - - 43° 95.1° 64.6° - - -
6/21 1:00pm 200 12 G 19 94° 17% - - 42° 95.1° 64.6° - - -
6/21 12:50pm 196 13 G 18 94° 15% - - 39° 94.6° 64.6° - - -
6/21 12:40pm 200 11 G 17 94° 15% - - 38° 94.6° 64.6° - - -
6/21 12:30pm 199 12 G 17 93° 15% - - 38° 94.1° 64.6° - - -
6/21 12:20pm 194 12 G 18 93° 15% - - 39° 93.7° 64.6° - - -
6/21 12:10pm 194 11 G 16 93° 15% - - 39° 93.5° 64.6° - - -
6/21 12:00pm 191 11 G 14 92° 15% - - 38° 92.9° 64.6° - - -
6/21 11:50am 191 10 G 13 92° 16% - - 39° 92.3° 64.6° - - -
6/21 11:40am 190 9 G 12 91° 17% - - 40° 92.2° 64.6° - - -
6/21 11:30am 190 8 G 11 91° 16% - - 39° 92.2° 64.6° - - -
6/21 11:20am 193 6 G 9 91° 17% - - 40° 91.6° 64.6° - - -
6/21 11:10am 188 6 G 9 90° 15% - - 37° 90.9° 64.6° - - -
6/21 11:00am 185 5 G 8 90° 16% - - 38° 90.6° 64.6° - - -
6/21 10:50am 191 4 G 7 90° 18% - - 40° 90.1° 64.6° - - -
6/21 10:40am 190 4 G 6 89° 20% - - 42° 90.1° 64.6° - - -
6/21 10:30am 184 4 G 5 89° 18% - - 40° 89.6° 64.6° - - -
6/21 10:20am 183 4 G 5 88° 16% - - 37° 89° 64.6° - - -
6/21 10:10am 180 4 G 6 88° 16% - - 36° 88.8° 64.6° - - -
6/21 10:00am 181 3 G 5 87° 18% - - 39° 88° 64.6° - - -
6/21 9:50am 183 4 G 5 87° 16% - - 36° 87.9° 64.6° - - -
6/21 9:40am 181 3 G 4 87° 15% - - 34° 87.5° 64.6° - - -
6/21 9:30am 182 3 G 4 87° 15% - - 34° 87.4° 64.6° - - -
6/21 9:20am 174 3 G 3 86° 14% - - 32° 86.9° 64.6° - - -
6/21 9:10am 174 3 G 4 86° 15% - - 33° 86.9° 64.6° - - -
6/21 9:00am 178 2 G 4 86° 17% - - 36° 86.9° 64.6° - - -
6/21 8:50am 178 3 G 4 86° 15% - - 34° 86.9° 64.6° - - -
6/21 8:40am 189 2 G 3 86° 18% - - 37° 86.9° 64.6° - - -
6/21 8:30am 88 2 G 3 84° 29% - - 49° 85.9° 64.6° - - -
6/21 8:20am 51 4 G 5 82° 29% - - 47° 83.5° 64.6° - - -
6/21 8:10am 43 5 G 6 80° 30% - - 46° 81.9° 64.6° - - -
6/21 8:00am 47 6 G 7 79° 32% - - 47° 80° 64.6° - - -
6/21 7:50am 57 7 G 8 77° 33% - - 46° 79° 64.6° - - -
6/21 7:40am 54 7 G 9 75° 34% - - 45° 76.6° 64.6° - - -
6/21 7:30am 51 8 G 9 74° 34% - - 44° 74.8° 64.6° - - -
6/21 7:20am 47 8 G 11 72° 35% - - 43° 72.9° 64.6° - - -
6/21 7:10am 53 9 G 11 71° 33% - - 41° 72.2° 64.6° - - -
6/21 7:00am 52 9 G 11 70° 34% - - 40° 71.3° 64.6° - - -
6/21 6:50am 47 9 G 12 68° 35% - - 40° 70.8° 64.6° - - -
6/21 6:40am 49 10 G 11 68° 35% - - 40° 70.8° 64.6° - - -
6/21 6:30am 52 10 G 12 68° 35% - - 39° 70.8° 64.6° - - -
6/21 6:20am 52 10 G 11 68° 35% - - 39° 70.8° 64.6° - - -
6/21 6:10am 51 10 G 11 68° 36% - - 39° 70.8° 64.6° - - -
6/21 6:00am 48 10 G 12 67° 37% - - 40° 70.8° 64.6° - - -
6/21 5:50am 50 10 G 12 66° 39% - - 41° 70.8° 64.6° - - -
6/21 5:40am 50 10 G 12 67° 39% - - 41° 70.8° 64.6° - - -
6/21 5:30am 52 10 G 12 66° 41% - - 42° 70.8° 64.6° - - -
6/21 5:20am 47 10 G 12 66° 43% - - 43° 70.8° 64.6° - - -
6/21 5:10am 55 10 G 12 68° 41% - - 43° 70.8° 64.6° - - -
6/21 5:00am 50 10 G 12 66° 45% - - 44° 70.8° 64.6° - - -
6/21 4:50am 44 10 G 12 66° 47% - - 45° 70.8° 64.6° - - -
6/21 4:40am 44 10 G 12 66° 48% - - 46° 70.8° 64.6° - - -
6/21 4:30am 42 10 G 13 66° 48% - - 46° 70.8° 64.6° - - -
6/21 4:20am 49 10 G 12 67° 48% - - 46° 70.8° 64.6° - - -
6/21 4:10am 46 10 G 12 66° 51% - - 48° 70.8° 64.6° - - -
6/21 4:00am 49 10 G 12 67° 51% - - 48° 70.8° 64.6° - - -
6/21 3:50am 53 10 G 12 66° 54% - - 49° 70.8° 64.6° - - -
6/21 3:40am 42 10 G 12 65° 56% - - 49° 70.8° 64.6° - - -
6/21 3:30am 43 10 G 12 66° 54% - - 49° 70.8° 65° - - -
6/21 3:20am 47 9 G 11 67° 53% - - 49° 70.8° 65.7° - - -
6/21 3:10am 46 10 G 12 67° 53% - - 49° 70.8° 65.7° - - -
6/21 3:00am 46 10 G 12 67° 53% - - 49° 70.8° 66.2° - - -
6/21 2:50am 46 9 G 11 67° 52% - - 49° 70.8° 66.4° - - -
6/21 2:40am 47 10 G 11 68° 52% - - 49° 70.8° 66.4° - - -
6/21 2:30am 51 9 G 11 68° 52% - - 49° 70.8° 66.4° - - -
6/21 2:20am 51 10 G 12 69° 50% - - 49° 70.8° 66.4° - - -
6/21 2:10am 52 9 G 11 67° 52% - - 49° 70.4° 66.4° - - -
6/21 2:00am 45 10 G 12 67° 54% - - 50° 70.4° 66.4° - - -
6/21 1:50am 52 10 G 12 67° 53% - - 50° 70.4° 66.5° - - -
6/21 1:40am 41 10 G 12 67° 53% - - 50° 70.4° 66.5° - - -
6/21 1:30am 52 9 G 11 68° 51% - - 50° 70.4° 66.8° - - -
6/21 1:20am 47 10 G 12 68° 53% - - 50° 70.4° 66.8° - - -
6/21 1:10am 44 9 G 11 68° 53% - - 50° 70.4° 67.2° - - -
6/21 1:00am 49 10 G 11 68° 53% - - 50° 70.4° 67.2° - - -
6/21 12:50am 43 9 G 11 69° 51% - - 50° 70.4° 67.2° - - -
6/21 12:40am 53 9 G 10 69° 51% - - 50° 70.4° 67.2° - - -
6/21 12:30am 50 9 G 11 69° 51% - - 50° 69.1° 67.2° - - -
6/21 12:20am 50 10 G 11 68° 52% - - 50° 69° 67.2° - - -
6/21 12:10am 50 9 G 11 68° 53% - - 50° 68.9° 67.2° - - -
6/21 12:00am 40 9 G 11 68° 52% - - 50° 97.6° 65.7° - - -
6/20 11:50pm 45 9 G 11 69° 52% - - 50° 97.6° 65.7° - - -
6/20 11:40pm 47 9 G 11 70° 50% - - 50° 97.6° 65.7° - - -
6/20 11:30pm 47 9 G 11 70° 51% - - 51° 97.6° 65.7° - - -
6/20 11:20pm 50 9 G 11 70° 51% - - 51° 97.6° 65.7° - - -
6/20 11:10pm 47 9 G 11 70° 51% - - 51° 97.6° 65.7° - - -
6/20 11:00pm 47 9 G 11 70° 52% - - 52° 97.6° 65.7° - - -
6/20 10:50pm 45 9 G 11 70° 54% - - 53° 97.6° 65.7° - - -
6/20 10:40pm 50 9 G 11 70° 54% - - 53° 97.6° 65.7° - - -
6/20 10:30pm 52 8 G 10 71° 54% - - 54° 97.6° 65.7° - - -
6/20 10:20pm 49 8 G 10 71° 55% - - 54° 97.6° 65.7° - - -
6/20 10:10pm 47 8 G 10 71° 56% - - 55° 97.6° 65.7° - - -
6/20 10:00pm 48 8 G 10 71° 57% - - 55° 97.6° 65.7° - - -
6/20 9:50pm 48 8 G 10 72° 56% - - 55° 97.6° 65.7° - - -
6/20 9:40pm 43 8 G 9 72° 57% - - 56° 97.6° 65.7° - - -
6/20 9:30pm 46 8 G 10 73° 56% - - 56° 97.6° 65.7° - - -
6/20 9:20pm 49 7 G 9 73° 55% - - 56° 97.6° 65.7° - - -
6/20 9:10pm 46 8 G 10 74° 54% - - 56° 97.6° 65.7° - - -
6/20 9:00pm 46 6 G 8 74° 53% - - 56° 97.6° 65.7° - - -
6/20 8:50pm 49 6 G 8 75° 52% - - 57° 97.6° 65.7° - - -
6/20 8:40pm 48 6 G 7 77° 49% - - 56° 97.6° 65.7° - - -
6/20 8:30pm 46 5 G 7 78° 47% - - 56° 97.6° 65.7° - - -
6/20 8:20pm 64 3 G 6 81° 42% - - 56° 97.6° 65.7° - - -
6/20 8:10pm 117 2 G 5 82° 40% - - 55° 97.6° 65.7° - - -
6/20 8:00pm 180 3 G 5 83° 40% - - 56° 97.6° 65.7° - - -
6/20 7:50pm 209 3 G 5 84° 38% - - 55° 97.6° 65.7° - - -
6/20 7:40pm 238 3 G 5 85° 37% - - 55° 97.6° 65.7° - - -
6/20 7:30pm 274 3 G 5 85° 36% - - 56° 97.6° 65.7° - - -
6/20 7:20pm 253 3 G 6 86° 36% - - 56° 97.6° 65.7° - - -
6/20 7:10pm 278 3 G 7 87° 36% - - 57° 97.6° 65.7° - - -
6/20 7:00pm 252 3 G 5 87° 36% - - 57° 97.6° 65.7° - - -
6/20 6:50pm 238 4 G 7 87° 36% - - 57° 97.6° 65.7° - - -
6/20 6:40pm 239 4 G 6 88° 35% - - 57° 97.6° 65.7° - - -
6/20 6:30pm 224 4 G 8 88° 35% - - 57° 97.6° 65.7° - - -
6/20 6:20pm 243 4 G 9 89° 34% - - 57° 97.6° 65.7° - - -
6/20 6:10pm 235 4 G 9 89° 33% - - 57° 97.6° 65.7° - - -
6/20 6:00pm 223 6 G 9 90° 32% - - 56° 97.6° 65.7° - - -